Time;durP1;ratioP1;P1;durP2;ratioP2;P2;SDS_P1;SDS_P2;PMS_P1;PMS_P2;Temp;Humidity;BMP_temperature;BMP_pressure;BME280_temperature;BME280_humidity;BME280_pressure;Samples;Min_cycle;Max_cycle;Signal;HPM_P1;HPM_P2
2020/12/10 00:00:32;;;;;;;7.03;6.07;;;21.40;45.50;;;;;;5071698;28;20192;-70
2020/12/10 00:02:58;;;;;;;6.67;5.87;;;21.40;45.50;;;;;;5071725;28;20606;-71
2020/12/10 00:05:24;;;;;;;5.70;5.03;;;21.40;45.50;;;;;;5070292;28;20276;-72
2020/12/10 00:07:50;;;;;;;6.60;6.00;;;21.40;45.50;;;;;;5071485;28;20489;-71
2020/12/10 00:10:15;;;;;;;6.57;5.97;;;21.40;45.50;;;;;;5071191;28;20226;-71
2020/12/10 00:12:42;;;;;;;6.07;5.57;;;21.40;45.50;;;;;;5071730;28;20165;-70
2020/12/10 00:15:09;;;;;;;6.27;5.67;;;21.30;45.50;;;;;;5071510;28;20406;-70
2020/12/10 00:17:35;;;;;;;6.80;5.90;;;21.30;45.40;;;;;;5071237;28;20432;-70
2020/12/10 00:20:01;;;;;;;5.90;5.33;;;21.30;45.40;;;;;;5071259;28;20489;-70
2020/12/10 00:22:27;;;;;;;6.17;5.17;;;21.30;45.50;;;;;;5071185;28;20640;-70
2020/12/10 00:24:52;;;;;;;8.60;5.67;;;21.30;45.40;;;;;;5071478;28;20233;-69
2020/12/10 00:27:23;;;;;;;6.03;5.40;;;21.30;45.40;;;;;;5071353;28;20551;-69
2020/12/10 00:29:49;;;;;;;5.83;5.20;;;21.30;45.40;;;;;;5071259;28;20168;-71
2020/12/10 00:32:18;;;;;;;7.53;5.80;;;21.30;45.40;;;;;;5071117;28;20418;-70
2020/12/10 00:34:45;;;;;;;5.30;4.80;;;21.30;45.40;;;;;;5069804;28;20916;-71
2020/12/10 00:37:11;;;;;;;6.60;5.90;;;21.20;45.30;;;;;;5071001;28;20451;-69
2020/12/10 00:39:37;;;;;;;6.20;5.30;;;21.30;45.30;;;;;;5071098;28;20492;-71
2020/12/10 00:42:03;;;;;;;5.73;5.13;;;21.20;45.30;;;;;;5071160;28;20418;-71
2020/12/10 00:44:29;;;;;;;5.80;4.93;;;21.20;45.30;;;;;;5069637;28;20554;-70
2020/12/10 00:46:55;;;;;;;6.10;5.50;;;21.20;45.20;;;;;;5070923;28;20536;-70
2020/12/10 00:49:22;;;;;;;6.13;5.10;;;21.20;45.20;;;;;;5069626;28;20416;-70
2020/12/10 00:51:51;;;;;;;5.77;5.20;;;21.20;45.20;;;;;;5069455;28;20214;-71
2020/12/10 00:54:17;;;;;;;5.90;4.83;;;21.20;45.20;;;;;;5070932;28;20413;-71
2020/12/10 00:56:43;;;;;;;5.07;4.67;;;21.20;45.20;;;;;;5070752;28;20459;-70
2020/12/10 00:59:09;;;;;;;6.23;5.63;;;21.20;45.20;;;;;;5070911;28;20402;-70
2020/12/10 01:01:35;;;;;;;5.67;5.17;;;21.20;45.10;;;;;;5070717;28;20418;-70
2020/12/10 01:04:01;;;;;;;5.77;5.17;;;21.10;45.10;;;;;;5070663;28;20504;-71
2020/12/10 01:06:27;;;;;;;5.90;5.30;;;21.10;45.00;;;;;;5069287;28;20426;-70
2020/12/10 01:08:52;;;;;;;5.57;4.93;;;21.10;45.00;;;;;;5069584;28;20421;-70
2020/12/10 01:11:25;;;;;;;5.20;4.70;;;21.10;44.90;;;;;;5070553;28;20244;-69
2020/12/10 01:13:51;;;;;;;5.50;5.00;;;21.10;44.90;;;;;;5070745;28;20230;-68
2020/12/10 01:16:17;;;;;;;5.57;5.07;;;21.00;44.80;;;;;;5070838;28;20422;-69
2020/12/10 01:18:43;;;;;;;4.70;4.30;;;21.00;44.70;;;;;;5070573;28;20259;-70
2020/12/10 01:21:08;;;;;;;5.07;4.57;;;21.00;44.70;;;;;;5070461;28;20505;-70
2020/12/10 01:23:34;;;;;;;5.03;4.53;;;21.00;44.60;;;;;;5070610;28;20639;-70
2020/12/10 01:25:59;;;;;;;5.00;4.50;;;21.00;44.60;;;;;;5070716;28;20231;-70
2020/12/10 01:28:25;;;;;;;4.00;3.60;;;20.90;44.50;;;;;;5070639;28;20180;-68
2020/12/10 01:30:50;;;;;;;3.80;3.50;;;20.90;44.40;;;;;;5070415;28;20213;-68
2020/12/10 01:33:17;;;;;;;4.40;3.80;;;20.90;44.30;;;;;;5068984;28;20666;-68
2020/12/10 01:35:43;;;;;;;4.13;3.77;;;20.90;44.30;;;;;;5070326;28;20181;-71
2020/12/10 01:38:09;;;;;;;3.37;3.07;;;20.80;44.20;;;;;;5069254;28;20761;-70
2020/12/10 01:40:34;;;;;;;3.70;3.23;;;20.80;44.20;;;;;;5070448;28;20493;-71
2020/12/10 01:43:00;;;;;;;4.03;3.73;;;20.80;44.20;;;;;;5070495;28;20206;-69
2020/12/10 01:45:26;;;;;;;3.73;3.37;;;20.80;44.20;;;;;;5070457;28;20624;-70
2020/12/10 01:47:51;;;;;;;3.20;3.00;;;20.70;44.10;;;;;;5070455;28;20184;-71
2020/12/10 01:50:17;;;;;;;3.27;2.97;;;20.70;44.10;;;;;;5070268;28;20205;-71
2020/12/10 01:52:43;;;;;;;3.10;2.80;;;20.70;44.00;;;;;;5070373;28;20196;-71
2020/12/10 01:55:08;;;;;;;2.73;2.53;;;20.70;44.00;;;;;;5070540;28;20191;-70
2020/12/10 01:57:34;;;;;;;2.70;2.50;;;20.70;44.00;;;;;;5071923;28;20204;-71
2020/12/10 02:00:00;;;;;;;2.90;2.70;;;20.70;44.00;;;;;;5073103;28;20644;-71
2020/12/10 02:02:25;;;;;;;2.83;2.63;;;20.60;43.90;;;;;;5074123;28;20627;-71
2020/12/10 02:04:51;;;;;;;3.07;2.87;;;20.60;43.90;;;;;;5072600;28;20211;-69
2020/12/10 02:07:16;;;;;;;2.60;2.40;;;20.60;43.80;;;;;;5072364;28;20185;-70
2020/12/10 02:09:42;;;;;;;2.57;2.37;;;20.60;43.90;;;;;;5073736;28;20235;-70
2020/12/10 02:12:08;;;;;;;2.37;2.17;;;20.60;43.80;;;;;;5073674;28;20230;-70
2020/12/10 02:14:37;;;;;;;2.17;1.90;;;20.50;43.70;;;;;;5073889;28;20176;-70
2020/12/10 02:17:05;;;;;;;2.40;2.20;;;20.50;43.70;;;;;;5073704;28;20950;-71
2020/12/10 02:19:30;;;;;;;2.97;2.23;;;20.50;43.70;;;;;;5073567;28;20428;-70
2020/12/10 02:21:56;;;;;;;2.47;2.27;;;20.50;43.70;;;;;;5072075;28;20421;-70
2020/12/10 02:24:22;;;;;;;2.57;2.07;;;20.50;43.70;;;;;;5073638;28;20206;-70
2020/12/10 02:26:47;;;;;;;2.73;2.10;;;20.50;43.70;;;;;;5073556;28;20650;-71
2020/12/10 02:29:17;;;;;;;2.83;2.40;;;20.50;43.70;;;;;;5073486;28;20185;-71
2020/12/10 02:31:43;;;;;;;2.17;1.90;;;20.50;43.70;;;;;;5072121;28;20661;-70
2020/12/10 02:34:09;;;;;;;2.30;2.10;;;20.40;43.60;;;;;;5072215;28;20895;-70
2020/12/10 02:36:36;;;;;;;1.97;1.87;;;20.40;43.60;;;;;;5073262;28;20413;-70
2020/12/10 02:39:04;;;;;;;3.30;1.97;;;20.40;43.60;;;;;;5073387;28;20961;-69
2020/12/10 02:41:30;;;;;;;1.80;1.70;;;20.40;43.60;;;;;;5073302;28;20410;-70
2020/12/10 02:43:55;;;;;;;2.13;2.03;;;20.40;43.60;;;;;;5073488;28;20424;-70
2020/12/10 02:46:21;;;;;;;1.80;1.70;;;20.40;43.60;;;;;;5072274;28;20230;-70
2020/12/10 02:48:47;;;;;;;1.80;1.70;;;20.40;43.60;;;;;;5073081;28;20232;-70
2020/12/10 02:51:12;;;;;;;1.80;1.70;;;20.30;43.50;;;;;;5072980;28;20704;-69
2020/12/10 02:53:39;;;;;;;2.17;1.97;;;20.30;43.60;;;;;;5073162;28;20184;-69
2020/12/10 02:56:09;;;;;;;2.13;1.80;;;20.30;43.50;;;;;;5073007;28;20671;-68
2020/12/10 02:58:36;;;;;;;1.80;1.70;;;20.40;43.60;;;;;;5072958;28;20412;-70
2020/12/10 03:01:03;;;;;;;2.33;2.10;;;20.30;43.60;;;;;;5072898;28;20879;-70
2020/12/10 03:03:28;;;;;;;2.13;1.93;;;20.30;43.50;;;;;;5071819;28;20429;-70
2020/12/10 03:05:54;;;;;;;1.80;1.70;;;20.30;43.50;;;;;;5072733;28;20420;-70
2020/12/10 03:08:20;;;;;;;2.03;1.90;;;20.30;43.60;;;;;;5071488;28;20670;-70
2020/12/10 03:10:48;;;;;;;1.80;1.70;;;20.30;43.70;;;;;;5072553;28;20283;-71
2020/12/10 03:13:14;;;;;;;1.57;1.47;;;20.30;43.70;;;;;;5071470;28;20200;-69
2020/12/10 03:15:39;;;;;;;1.73;1.63;;;20.40;43.80;;;;;;5072743;28;20916;-70
2020/12/10 03:18:05;;;;;;;2.20;2.00;;;20.40;43.80;;;;;;5072488;28;20416;-70
2020/12/10 03:20:31;;;;;;;2.47;1.90;;;20.50;43.90;;;;;;5072416;28;20180;-71
2020/12/10 03:22:56;;;;;;;2.87;2.03;;;20.50;43.90;;;;;;5071199;28;20284;-70
2020/12/10 03:25:24;;;;;;;2.90;1.83;;;20.50;43.80;;;;;;5072249;28;20181;-70
2020/12/10 03:27:49;;;;;;;2.37;2.17;;;20.60;43.70;;;;;;5072634;28;20165;-70
2020/12/10 03:30:15;;;;;;;2.23;2.03;;;20.60;43.70;;;;;;5072309;28;20802;-70
2020/12/10 03:32:41;;;;;;;1.60;1.50;;;20.70;43.70;;;;;;5071031;28;20596;-70
2020/12/10 03:35:07;;;;;;;2.00;1.80;;;20.70;43.70;;;;;;5070862;28;20829;-69
2020/12/10 03:37:33;;;;;;;1.83;1.73;;;20.70;43.60;;;;;;5072344;28;20268;-71
2020/12/10 03:39:58;;;;;;;2.33;2.13;;;20.70;43.60;;;;;;5072174;28;20497;-70
2020/12/10 03:42:24;;;;;;;2.30;1.90;;;20.70;43.50;;;;;;5072300;28;20231;-70
2020/12/10 03:44:50;;;;;;;1.67;1.57;;;20.70;43.50;;;;;;5072150;28;20173;-70
2020/12/10 03:47:15;;;;;;;2.43;2.20;;;20.70;43.50;;;;;;5072030;28;20631;-69
2020/12/10 03:49:41;;;;;;;1.90;1.80;;;20.70;43.50;;;;;;5071909;28;20527;-71
2020/12/10 03:52:06;;;;;;;1.90;1.80;;;20.70;43.40;;;;;;5071822;28;20738;-70
2020/12/10 03:54:32;;;;;;;2.70;2.43;;;20.70;43.40;;;;;;5072020;28;20177;-69
2020/12/10 03:56:58;;;;;;;2.30;2.10;;;20.80;43.40;;;;;;5070369;28;20207;-70
2020/12/10 03:59:23;;;;;;;2.03;1.83;;;20.70;43.30;;;;;;5071823;28;20177;-70
2020/12/10 04:01:49;;;;;;;2.43;2.23;;;20.80;43.40;;;;;;5071825;28;20195;-69
2020/12/10 04:04:14;;;;;;;2.37;2.17;;;20.80;43.30;;;;;;5071474;28;20232;-70
2020/12/10 04:06:43;;;;;;;2.23;2.03;;;20.70;43.20;;;;;;5070677;28;20234;-69
2020/12/10 04:09:10;;;;;;;1.87;1.70;;;20.70;43.20;;;;;;5071525;28;20223;-69
2020/12/10 04:11:35;;;;;;;2.73;2.43;;;20.70;43.20;;;;;;5071341;28;20534;-69
2020/12/10 04:14:01;;;;;;;2.67;2.17;;;20.70;43.20;;;;;;5070235;28;20413;-69
2020/12/10 04:16:27;;;;;;;2.30;2.10;;;20.70;43.20;;;;;;5071475;28;20180;-69
2020/12/10 04:18:53;;;;;;;2.97;2.77;;;20.70;43.20;;;;;;5071008;28;20226;-69
2020/12/10 04:21:18;;;;;;;2.30;2.10;;;20.70;43.20;;;;;;5071106;28;20513;-69
2020/12/10 04:23:44;;;;;;;3.27;2.97;;;20.70;43.20;;;;;;5071370;28;20632;-69
2020/12/10 04:26:13;;;;;;;2.30;2.10;;;20.70;43.10;;;;;;5070026;28;20177;-69
2020/12/10 04:28:38;;;;;;;2.67;2.47;;;20.70;43.10;;;;;;5069828;28;20256;-69
2020/12/10 04:31:04;;;;;;;3.10;2.80;;;20.70;43.10;;;;;;5071139;28;20590;-71
2020/12/10 04:33:30;;;;;;;2.93;2.30;;;20.70;43.10;;;;;;5071029;28;20169;-70
2020/12/10 04:35:56;;;;;;;3.33;2.43;;;20.70;43.10;;;;;;5071187;28;20420;-71
2020/12/10 04:38:22;;;;;;;2.50;2.30;;;20.70;43.10;;;;;;5071207;28;20178;-70
2020/12/10 04:40:47;;;;;;;3.10;2.50;;;20.70;43.10;;;;;;5069737;28;20594;-70
2020/12/10 04:43:15;;;;;;;2.30;2.10;;;20.70;43.10;;;;;;5071076;28;20405;-70
2020/12/10 04:45:40;;;;;;;2.70;2.50;;;20.70;43.10;;;;;;5069831;28;20184;-70
2020/12/10 04:48:06;;;;;;;2.63;2.33;;;20.60;43.10;;;;;;5071048;28;20410;-71
2020/12/10 04:50:35;;;;;;;3.60;2.60;;;20.70;43.10;;;;;;5069465;28;20304;-70
2020/12/10 04:53:02;;;;;;;2.70;2.50;;;20.70;43.10;;;;;;5071076;28;20574;-71
2020/12/10 04:55:28;;;;;;;4.50;2.80;;;20.60;43.10;;;;;;5070978;28;20923;-70
2020/12/10 04:57:55;;;;;;;4.43;3.10;;;20.60;43.00;;;;;;5071178;28;20433;-70
2020/12/10 05:00:21;;;;;;;3.30;3.00;;;20.60;43.10;;;;;;5069580;28;20180;-69
2020/12/10 05:02:47;;;;;;;3.50;3.13;;;20.60;43.00;;;;;;5070839;28;20417;-71
2020/12/10 05:05:32;;;;;;;4.57;2.90;;;20.60;43.10;;;;;;5070657;28;20440;-69
2020/12/10 05:08:01;;;;;;;3.20;2.90;;;20.60;43.10;;;;;;5070834;28;20452;-69
2020/12/10 05:10:27;;;;;;;2.97;2.33;;;20.60;43.30;;;;;;5069091;28;20543;-69
2020/12/10 05:13:08;;;;;;;2.70;2.50;;;20.60;43.40;;;;;;5070815;28;20442;-70
2020/12/10 05:15:35;;;;;;;3.27;2.60;;;20.60;43.50;;;;;;5070655;28;20722;-70
2020/12/10 05:18:09;;;;;;;3.13;2.83;;;20.70;43.60;;;;;;5070342;28;20437;-69
2020/12/10 05:20:43;;;;;;;4.70;2.97;;;20.70;44.30;;;;;;5070604;28;20405;-69
2020/12/10 05:23:10;;;;;;;3.03;2.73;;;20.80;43.70;;;;;;5070729;28;20390;-69
2020/12/10 05:25:50;;;;;;;4.70;3.13;;;20.80;43.60;;;;;;5070549;28;20413;-68
2020/12/10 05:28:18;;;;;;;3.67;3.03;;;20.90;43.60;;;;;;5070589;28;20500;-69
2020/12/10 05:30:45;;;;;;;4.00;3.60;;;20.90;43.60;;;;;;5069059;28;20479;-69
2020/12/10 05:33:15;;;;;;;3.73;3.30;;;21.00;43.60;;;;;;5071500;28;20810;-69
2020/12/10 05:35:41;;;;;;;3.87;3.33;;;21.00;43.50;;;;;;5074760;28;20440;-68
2020/12/10 05:38:11;;;;;;;3.50;2.93;;;21.00;43.50;;;;;;5074396;28;20928;-69
2020/12/10 05:40:38;;;;;;;5.53;3.60;;;21.10;43.60;;;;;;5073028;28;20255;-69
2020/12/10 05:43:05;;;;;;;3.77;3.37;;;21.10;43.50;;;;;;5074437;28;20426;-68
2020/12/10 05:45:36;;;;;;;3.53;3.17;;;21.20;43.50;;;;;;5073143;28;20497;-69
2020/12/10 05:48:02;;;;;;;4.00;3.67;;;21.10;43.40;;;;;;5074048;28;20787;-69
2020/12/10 05:50:30;;;;;;;5.63;3.57;;;21.20;43.40;;;;;;5073734;28;20468;-68
2020/12/10 05:52:56;;;;;;;3.73;3.40;;;21.20;43.30;;;;;;5074248;28;20173;-68
2020/12/10 05:55:22;;;;;;;4.00;3.40;;;21.20;43.40;;;;;;5074093;28;20409;-68
2020/12/10 05:57:48;;;;;;;4.00;3.60;;;21.20;43.40;;;;;;5074519;28;20338;-68
2020/12/10 06:00:14;;;;;;;3.67;3.17;;;21.20;43.40;;;;;;5073978;28;20203;-69
2020/12/10 06:02:41;;;;;;;4.40;3.57;;;21.20;43.30;;;;;;5074106;28;20504;-68
2020/12/10 06:05:08;;;;;;;4.07;3.50;;;21.20;43.30;;;;;;5074030;28;20173;-69
2020/12/10 06:07:34;;;;;;;4.37;3.80;;;21.20;43.30;;;;;;5073375;28;20414;-69
2020/12/10 06:10:00;;;;;;;6.23;4.70;;;21.20;43.20;;;;;;5066318;28;20433;-68
2020/12/10 06:12:26;;;;;;;4.70;4.30;;;21.20;43.20;;;;;;5071967;28;20182;-68
2020/12/10 06:14:59;;;;;;;5.90;4.87;;;21.10;43.10;;;;;;5071751;28;20413;-69
2020/12/10 06:17:25;;;;;;;6.57;4.80;;;21.20;43.10;;;;;;5070762;28;20180;-70
2020/12/10 06:19:50;;;;;;;5.10;4.43;;;21.20;43.20;;;;;;5070305;28;20421;-71
2020/12/10 06:22:29;;;;;;;6.10;4.60;;;21.10;43.10;;;;;;5070588;28;20496;-71
2020/12/10 06:24:56;;;;;;;6.10;4.87;;;21.10;43.10;;;;;;5071593;28;20761;-69
2020/12/10 06:27:25;;;;;;;5.00;4.20;;;21.10;43.10;;;;;;5091885;28;20419;-70
2020/12/10 06:30:09;;;;;;;5.43;4.90;;;21.10;43.10;;;;;;5091816;28;20420;-71
2020/12/10 06:32:48;;;;;;;5.20;4.70;;;21.10;43.10;;;;;;5089856;28;20443;-70
2020/12/10 06:35:28;;;;;;;6.70;5.20;;;21.10;43.10;;;;;;5091610;28;20403;-70
2020/12/10 06:37:54;;;;;;;5.03;4.50;;;21.10;43.10;;;;;;5091477;28;20465;-69
2020/12/10 06:40:30;;;;;;;4.63;4.13;;;21.10;43.20;;;;;;5091323;28;20780;-70
2020/12/10 06:42:55;;;;;;;7.83;4.53;;;21.00;43.40;;;;;;5090674;28;20184;-72
2020/12/10 06:45:29;;;;;;;8.93;4.60;;;21.10;44.20;;;;;;5091419;28;20475;-70
2020/12/10 06:47:55;;;;;;;6.73;4.40;;;21.10;44.20;;;;;;5089265;28;20271;-72
2020/12/10 06:50:26;;;;;;;9.80;5.10;;;21.10;44.10;;;;;;5088334;28;21049;-71
2020/12/10 06:53:10;;;;;;;6.97;4.37;;;21.20;44.30;;;;;;5089749;28;20181;-71
2020/12/10 06:55:55;;;;;;;5.67;4.77;;;21.20;44.30;;;;;;5089146;28;20555;-71
2020/12/10 06:58:21;;;;;;;9.17;4.90;;;21.30;44.20;;;;;;5085481;28;20680;-71
2020/12/10 07:03:16;;;;;;;5.90;4.67;;;21.30;43.60;;;;;;5119971;27;20604;-72
2020/12/10 07:05:42;;;;;;;6.30;5.30;;;21.40;46.50;;;;;;5126025;27;20482;-71
2020/12/10 07:08:09;;;;;;;8.87;4.80;;;21.50;46.10;;;;;;5125656;28;20408;-70
2020/12/10 07:10:53;;;;;;;6.90;4.83;;;21.70;47.70;;;;;;5125503;27;20812;-69
2020/12/10 07:13:31;;;;;;;6.60;5.57;;;21.80;48.10;;;;;;5125154;27;20472;-70
2020/12/10 07:15:57;;;;;;;6.60;4.70;;;22.00;48.70;;;;;;5125584;28;21284;-70
2020/12/10 07:18:22;;;;;;;5.33;4.50;;;22.10;48.60;;;;;;5125228;27;20415;-69
2020/12/10 07:20:48;;;;;;;7.87;4.80;;;22.30;49.10;;;;;;5124313;28;20689;-70
2020/12/10 07:23:14;;;;;;;5.47;4.70;;;22.40;49.00;;;;;;5123652;28;20211;-69
2020/12/10 07:25:39;;;;;;;8.00;4.50;;;22.50;49.30;;;;;;5124444;28;20183;-68
2020/12/10 07:28:05;;;;;;;4.80;4.40;;;22.70;49.20;;;;;;5124971;27;20252;-68
2020/12/10 07:30:31;;;;;;;5.70;5.03;;;22.80;48.90;;;;;;5125443;27;20607;-71
2020/12/10 07:32:59;;;;;;;12.33;4.77;;;23.00;48.50;;;;;;5124190;27;20259;-69
2020/12/10 07:35:38;;;;;;;7.90;5.33;;;23.10;48.30;;;;;;5123560;27;21558;-69
2020/12/10 07:38:14;;;;;;;5.40;4.67;;;23.20;47.80;;;;;;5124108;28;20649;-69
2020/12/10 07:40:41;;;;;;;6.57;5.23;;;23.40;47.50;;;;;;5124009;28;20448;-70
2020/12/10 07:43:08;;;;;;;5.80;5.10;;;23.50;47.30;;;;;;5125183;27;20665;-68
2020/12/10 07:45:34;;;;;;;5.97;5.40;;;23.60;46.90;;;;;;5124717;27;20906;-70
2020/12/10 07:48:02;;;;;;;7.07;5.10;;;23.70;46.70;;;;;;5124243;28;20424;-70
2020/12/10 07:50:30;;;;;;;7.67;5.77;;;23.70;46.30;;;;;;5125278;28;20432;-72
2020/12/10 07:52:57;;;;;;;6.70;5.23;;;23.80;46.20;;;;;;5126831;27;20417;-72
2020/12/10 07:55:27;;;;;;;10.60;5.43;;;23.90;45.90;;;;;;5126797;27;20411;-71
2020/12/10 07:58:16;;;;;;;6.30;5.67;;;23.90;45.90;;;;;;5126849;27;20439;-72
2020/12/10 08:00:45;;;;;;;5.93;5.33;;;23.90;45.60;;;;;;5125229;28;20410;-71
2020/12/10 08:03:37;;;;;;;6.87;5.83;;;24.00;45.40;;;;;;5123295;28;20915;-69
2020/12/10 08:06:04;;;;;;;6.60;5.57;;;24.00;45.20;;;;;;5126258;28;20433;-71
2020/12/10 08:08:33;;;;;;;7.70;5.50;;;24.00;45.00;;;;;;5125405;27;20425;-69
2020/12/10 08:11:17;;;;;;;7.63;5.40;;;24.10;44.90;;;;;;5124980;28;20477;-68
2020/12/10 08:13:56;;;;;;;8.70;5.13;;;24.10;45.20;;;;;;5115521;28;20934;-68
2020/12/10 08:16:21;;;;;;;7.57;5.00;;;24.00;44.80;;;;;;5112636;28;20414;-68
2020/12/10 08:18:47;;;;;;;11.30;6.30;;;24.00;45.40;;;;;;5111426;28;20417;-69
2020/12/10 08:21:28;;;;;;;6.17;5.57;;;24.00;45.00;;;;;;5111326;28;20211;-68
2020/12/10 08:23:53;;;;;;;6.10;5.30;;;24.00;45.80;;;;;;5111365;28;20174;-66
2020/12/10 08:26:19;;;;;;;6.17;5.57;;;24.10;45.10;;;;;;5106141;28;20453;-69
2020/12/10 08:28:56;;;;;;;6.10;5.00;;;24.10;45.00;;;;;;5111037;28;20227;-66
2020/12/10 08:31:33;;;;;;;9.53;5.57;;;24.20;45.30;;;;;;5110222;28;20176;-63
2020/12/10 15:54:32;;;;;;;8.73;7.83;;;18.40;42.90;;;;;;5109005;27;20482;-65
2020/12/10 15:58:55;;;;;;;9.20;8.30;;;17.70;44.30;;;;;;5096462;27;765940;-75
2020/12/10 16:01:27;;;;;;;8.93;8.13;;;17.90;43.90;;;;;;5103075;28;20190;-68
2020/12/10 16:03:58;;;;;;;8.70;7.90;;;17.80;43.50;;;;;;5106910;28;20188;-67
2020/12/10 16:06:25;;;;;;;8.50;7.70;;;17.70;43.60;;;;;;5091123;28;20442;-68
2020/12/10 16:08:54;;;;;;;12.27;11.20;;;18.40;46.40;;;;;;5105612;28;20418;-66
2020/12/10 16:14:17;;;;;;;37.10;33.27;;;14.10;45.70;;;;;;5157919;27;20510;-79
2020/12/10 16:16:43;;;;;;;16.17;14.67;;;8.50;61.20;;;;;;5124213;28;20419;-82
2020/12/10 16:19:09;;;;;;;20.77;18.53;;;6.80;69.60;;;;;;5123164;28;20853;-82
2020/12/10 16:21:39;;;;;;;36.40;28.77;;;5.00;72.60;;;;;;5122437;28;20181;-82
2020/12/10 16:24:05;;;;;;;55.22;36.50;;;4.20;76.50;;;;;;5129230;28;20191;-82
2020/12/10 16:26:36;;;;;;;36.58;28.52;;;4.00;78.00;;;;;;5118069;28;20550;-82
2020/12/10 16:29:04;;;;;;;20.20;17.02;;;3.70;78.60;;;;;;5129833;27;20191;-82
2020/12/10 16:31:35;;;;;;;36.05;27.00;;;3.60;78.90;;;;;;5115934;27;20192;-82
2020/12/10 16:34:04;;;;;;;51.78;37.60;;;3.50;79.60;;;;;;5119297;28;20735;-82
2020/12/10 16:36:32;;;;;;;44.70;34.05;;;3.60;79.80;;;;;;5121664;27;20175;-82
2020/12/10 16:38:58;;;;;;;23.27;20.25;;;3.60;80.10;;;;;;5119963;28;20210;-82
2020/12/10 16:41:28;;;;;;;23.37;20.27;;;3.60;80.20;;;;;;5121205;28;20168;-82
2020/12/10 16:44:02;;;;;;;19.17;16.42;;;3.60;81.10;;;;;;5123422;27;20195;-82
2020/12/10 16:46:28;;;;;;;51.45;37.58;;;3.60;81.30;;;;;;5122261;28;20234;-82
2020/12/10 16:48:53;;;;;;;25.30;21.17;;;3.60;81.20;;;;;;5123644;27;20219;-82
2020/12/10 16:51:19;;;;;;;58.83;52.73;;;3.60;80.50;;;;;;5124753;27;20187;-82
2020/12/10 16:53:47;;;;;;;43.17;38.43;;;3.60;81.20;;;;;;5123795;28;20211;-82
2020/12/10 16:56:14;;;;;;;41.92;37.55;;;3.50;81.20;;;;;;5125592;27;20215;-82
2020/12/10 16:58:46;;;;;;;22.48;18.65;;;3.60;81.90;;;;;;5123842;28;20310;-82
2020/12/10 17:01:19;;;;;;;25.75;23.08;;;3.60;81.20;;;;;;5124150;27;20258;-82
2020/12/10 17:03:54;;;;;;;28.23;22.75;;;3.60;81.60;;;;;;5125508;27;20179;-82
2020/12/10 17:06:20;;;;;;;20.15;17.90;;;3.50;81.60;;;;;;5124264;28;20163;-82
2020/12/10 17:08:49;;;;;;;16.05;14.35;;;3.50;81.80;;;;;;5124156;28;20703;-82
2020/12/10 17:11:23;;;;;;;14.57;12.60;;;3.50;81.30;;;;;;5124054;28;20187;-81
2020/12/10 17:13:49;;;;;;;15.88;14.35;;;3.40;81.60;;;;;;5123599;28;20230;-82
2020/12/10 17:16:18;;;;;;;18.00;14.60;;;3.30;82.30;;;;;;5125631;27;20171;-82
2020/12/10 17:18:45;;;;;;;19.95;16.60;;;3.40;82.20;;;;;;5124169;28;20532;-82
2020/12/10 17:21:26;;;;;;;19.13;15.63;;;3.50;82.30;;;;;;5124315;28;20714;-82
2020/12/10 17:24:00;;;;;;;21.90;17.30;;;3.50;82.20;;;;;;5120668;28;20654;-82
2020/12/10 17:26:35;;;;;;;23.75;20.90;;;3.50;82.30;;;;;;5110468;28;20183;-82
2020/12/10 17:29:05;;;;;;;22.10;18.02;;;3.50;82.80;;;;;;5111451;28;20183;-82
2020/12/10 17:31:36;;;;;;;19.23;17.10;;;3.40;83.30;;;;;;5110769;28;20176;-82
2020/12/10 17:34:07;;;;;;;18.90;16.38;;;3.40;83.50;;;;;;5109690;28;20634;-82
2020/12/10 17:36:36;;;;;;;18.90;16.63;;;3.40;84.10;;;;;;5109936;28;20175;-82
2020/12/10 17:39:07;;;;;;;17.65;14.35;;;3.40;83.30;;;;;;5110738;28;20180;-82
2020/12/10 17:41:33;;;;;;;18.35;16.35;;;3.40;83.40;;;;;;5110227;28;20171;-82
2020/12/10 17:44:04;;;;;;;20.47;16.57;;;3.40;83.60;;;;;;5109831;28;20175;-82
2020/12/10 17:46:33;;;;;;;18.52;15.75;;;3.50;83.40;;;;;;5109245;28;20226;-82
2020/12/10 17:49:01;;;;;;;24.77;19.88;;;3.50;83.30;;;;;;5111002;28;20183;-82
2020/12/10 17:51:27;;;;;;;16.60;14.68;;;3.40;83.50;;;;;;5109867;28;20190;-82
2020/12/10 17:53:55;;;;;;;24.77;19.93;;;3.30;83.50;;;;;;5110520;28;20663;-82
2020/12/10 17:56:21;;;;;;;20.60;17.80;;;3.40;83.80;;;;;;5110344;28;20207;-82
2020/12/10 17:58:53;;;;;;;25.43;21.23;;;3.40;83.70;;;;;;5111430;27;20211;-82
2020/12/10 18:01:21;;;;;;;20.77;16.88;;;3.40;83.70;;;;;;5109034;28;20183;-82
2020/12/10 18:03:47;;;;;;;40.60;27.83;;;3.40;83.80;;;;;;5110139;28;20260;-82
2020/12/10 18:06:21;;;;;;;25.37;20.37;;;3.50;84.10;;;;;;5110490;28;20545;-82
2020/12/10 18:08:47;;;;;;;20.33;16.90;;;3.50;84.00;;;;;;5109529;28;20191;-83
2020/12/10 18:11:18;;;;;;;20.97;17.10;;;3.50;84.20;;;;;;5111587;28;20175;-84
2020/12/10 18:13:46;;;;;;;19.80;16.50;;;3.50;84.30;;;;;;5109316;28;20269;-84
2020/12/10 18:16:18;;;;;;;22.35;18.70;;;3.40;84.50;;;;;;5097423;28;20208;-84
2020/12/10 18:18:47;;;;;;;25.73;19.17;;;3.40;84.90;;;;;;5100134;28;20187;-84
2020/12/10 18:21:25;;;;;;;25.08;20.25;;;3.50;85.10;;;;;;5109297;28;20171;-84
2020/12/10 18:23:51;;;;;;;28.95;21.75;;;3.50;85.00;;;;;;5095186;28;20747;-84
2020/12/10 18:26:23;;;;;;;31.00;22.63;;;3.40;84.80;;;;;;5110281;28;20252;-84
2020/12/10 18:28:49;;;;;;;35.22;27.63;;;3.40;85.70;;;;;;5101352;28;20448;-84
2020/12/10 18:31:21;;;;;;;27.10;20.53;;;3.50;85.60;;;;;;5089231;28;20180;-84
2020/12/10 18:33:50;;;;;;;28.33;23.10;;;3.50;85.70;;;;;;5088216;28;20528;-84
2020/12/10 18:36:25;;;;;;;22.70;18.33;;;3.50;86.00;;;;;;5087717;28;20683;-84
2020/12/10 18:38:51;;;;;;;23.20;18.30;;;3.40;86.10;;;;;;5089378;28;20184;-84
2020/12/10 18:41:23;;;;;;;24.13;19.87;;;3.40;86.50;;;;;;5088715;28;20230;-84
2020/12/10 18:43:52;;;;;;;24.40;19.90;;;3.50;86.40;;;;;;5088874;28;20407;-83
2020/12/10 18:46:20;;;;;;;25.02;19.63;;;3.50;86.50;;;;;;5106121;28;20183;-83
2020/12/10 18:48:57;;;;;;;23.00;19.02;;;3.40;86.30;;;;;;5110206;28;20658;-84
2020/12/10 18:51:29;;;;;;;26.83;20.90;;;3.40;87.10;;;;;;5109712;28;20172;-84
2020/12/10 18:53:58;;;;;;;25.42;19.50;;;3.50;87.20;;;;;;5110616;28;20723;-84
2020/12/10 18:56:35;;;;;;;26.10;21.58;;;3.60;87.30;;;;;;5109962;28;20168;-84
2020/12/10 18:59:05;;;;;;;27.33;20.95;;;3.60;88.10;;;;;;5109122;28;20179;-84
2020/12/10 19:01:37;;;;;;;23.60;20.55;;;3.60;88.30;;;;;;5108932;28;20168;-84
2020/12/10 19:04:03;;;;;;;26.45;20.52;;;3.60;87.80;;;;;;5108439;28;20237;-84
2020/12/10 19:06:34;;;;;;;37.03;25.33;;;3.50;87.70;;;;;;5107370;28;20576;-83
2020/12/10 19:09:04;;;;;;;25.80;20.42;;;3.40;88.10;;;;;;5109903;28;20184;-84
2020/12/10 19:11:33;;;;;;;21.88;18.98;;;3.40;88.60;;;;;;5109039;28;20176;-83
2020/12/10 19:14:02;;;;;;;23.48;18.20;;;3.40;88.30;;;;;;5107594;28;20227;-84
2020/12/10 19:16:36;;;;;;;21.90;17.35;;;3.30;89.10;;;;;;5109577;28;20592;-84
2020/12/10 19:19:06;;;;;;;21.60;17.00;;;3.20;89.50;;;;;;5108441;28;20190;-84
2020/12/10 19:21:32;;;;;;;21.83;17.67;;;3.30;89.30;;;;;;5109594;28;20638;-84
2020/12/10 19:24:01;;;;;;;24.23;17.48;;;3.40;89.30;;;;;;5107466;28;20704;-84
2020/12/10 19:26:30;;;;;;;23.85;17.50;;;3.30;89.10;;;;;;5108293;28;20606;-84
2020/12/10 19:28:58;;;;;;;20.30;16.27;;;3.20;89.10;;;;;;5108415;28;20187;-84
2020/12/10 19:31:24;;;;;;;26.02;19.35;;;3.30;89.50;;;;;;5108357;28;20186;-84
2020/12/10 19:33:50;;;;;;;25.10;19.73;;;3.20;89.40;;;;;;5108606;28;20219;-84
2020/12/10 19:36:22;;;;;;;23.13;18.58;;;3.20;90.00;;;;;;5107711;28;20180;-83
2020/12/10 19:38:47;;;;;;;23.33;17.42;;;3.30;90.00;;;;;;5107056;28;20655;-84
2020/12/10 19:41:31;;;;;;;20.97;16.90;;;3.30;90.10;;;;;;5108019;28;20228;-84
2020/12/10 19:43:57;;;;;;;23.52;17.45;;;3.30;90.30;;;;;;5110034;28;20183;-84
2020/12/10 19:46:22;;;;;;;18.93;15.07;;;3.30;90.20;;;;;;5109108;28;20670;-84
2020/12/10 19:48:53;;;;;;;22.43;16.50;;;3.30;90.10;;;;;;5107656;28;20274;-84
2020/12/10 19:51:19;;;;;;;28.88;21.38;;;3.30;90.40;;;;;;5094755;28;20208;-84
2020/12/10 19:53:48;;;;;;;43.77;27.27;;;3.20;90.30;;;;;;5088915;28;20243;-84
2020/12/10 19:56:16;;;;;;;27.60;18.48;;;3.00;90.50;;;;;;5086732;28;20745;-84
2020/12/10 19:58:45;;;;;;;23.75;17.50;;;3.00;90.70;;;;;;5087729;28;20218;-84
2020/12/10 20:01:10;;;;;;;22.90;17.02;;;3.00;90.50;;;;;;5087052;28;20176;-84
2020/12/10 20:03:39;;;;;;;26.97;19.23;;;3.00;90.60;;;;;;5086946;28;20257;-84
2020/12/10 20:06:14;;;;;;;22.70;17.95;;;3.10;91.00;;;;;;5086967;28;20210;-84
2020/12/10 20:08:49;;;;;;;25.95;18.02;;;3.10;90.80;;;;;;5087575;28;20666;-84
2020/12/10 20:11:17;;;;;;;25.90;18.33;;;3.10;91.10;;;;;;5087252;28;20667;-84
2020/12/10 20:13:48;;;;;;;23.77;17.45;;;3.00;91.50;;;;;;5087077;28;20264;-84
2020/12/10 20:16:14;;;;;;;23.52;19.02;;;3.00;91.50;;;;;;5088300;28;20251;-84